createdAt,value
2023-03-25T00:03:48.670Z,71.97
2023-03-25T00:08:49.872Z,71.66
2023-03-25T00:13:51.104Z,74.05
2023-03-25T00:18:52.206Z,73.85
2023-03-25T00:23:53.288Z,74.97
2023-03-25T00:28:54.485Z,72.48
2023-03-25T00:33:55.633Z,71.77
2023-03-25T00:38:56.824Z,66.89
2023-03-25T00:43:57.951Z,67.91
2023-03-25T00:48:59.119Z,72.41
2023-03-25T00:54:00.293Z,68.80
2023-03-25T00:59:01.571Z,66.83
2023-03-25T01:04:02.785Z,74.94
2023-03-25T01:09:04.128Z,78.97
2023-03-25T01:14:09.198Z,78.87
2023-03-25T01:19:05.703Z,79.55
2023-03-25T01:24:06.939Z,82.12
2023-03-25T01:29:08.056Z,82.97
2023-03-25T01:34:09.203Z,83.18
2023-03-25T01:39:10.446Z,82.87
2023-03-25T01:44:11.616Z,82.46
2023-03-25T01:49:12.797Z,83.28
2023-03-25T01:54:13.927Z,83.42
2023-03-25T01:59:15.169Z,83.07
2023-03-25T02:04:16.375Z,83.12
2023-03-25T02:09:17.529Z,83.32
2023-03-25T02:14:18.648Z,83.32
2023-03-25T02:19:19.801Z,87.77
2023-03-25T02:24:20.959Z,88.06
2023-03-25T02:29:22.131Z,91.64
2023-03-25T02:34:23.248Z,92.65
2023-03-25T02:39:24.459Z,92.34
2023-03-25T02:44:25.658Z,90.90
2023-03-25T02:49:26.809Z,93.16
2023-03-25T02:54:27.948Z,88.95
2023-03-25T02:59:29.147Z,89.83
2023-03-25T03:04:30.454Z,87.69
2023-03-25T03:09:31.590Z,91.74
2023-03-25T03:14:32.894Z,91.21
2023-03-25T03:19:34.088Z,92.55
2023-03-25T03:24:35.337Z,91.83
2023-03-25T03:29:36.491Z,92.34
2023-03-25T03:34:37.674Z,90.90
2023-03-25T03:39:38.809Z,89.25
2023-03-25T03:44:40.035Z,86.08
2023-03-25T03:49:40.150Z,87.46
2023-03-25T03:54:41.387Z,86.33
2023-03-25T03:59:43.798Z,86.50
2023-03-25T04:04:42.943Z,87.77
2023-03-25T04:09:44.091Z,88.90
2023-03-25T04:14:45.277Z,89.31
2023-03-25T04:19:46.366Z,89.01
2023-03-25T04:24:47.592Z,91.27
2023-03-25T04:29:48.817Z,91.50
2023-03-25T04:34:49.973Z,92.72
2023-03-25T04:39:51.194Z,94.31
2023-03-25T04:44:51.368Z,95.28
2023-03-25T04:49:52.601Z,91.88
2023-03-25T04:54:53.836Z,95.18
2023-03-25T04:59:56.050Z,93.88
2023-03-25T05:04:55.223Z,95.21
2023-03-25T05:09:56.459Z,96.45
2023-03-25T05:14:57.680Z,96.86
2023-03-25T05:19:58.816Z,98.00
2023-03-25T05:25:02.938Z,98.10
2023-03-25T05:30:00.186Z,98.57
2023-03-25T05:35:01.391Z,97.38
2023-03-25T05:40:02.579Z,98.99
2023-03-25T05:45:02.582Z,99.92
2023-03-25T05:50:03.765Z,98.72
2023-03-25T05:55:05.026Z,99.99
2023-03-25T06:00:06.197Z,99.99
2023-03-25T06:05:07.412Z,99.99
2023-03-25T06:10:08.644Z,99.99
2023-03-25T06:15:09.833Z,99.99
2023-03-25T06:20:11.000Z,99.61
2023-03-25T06:25:12.197Z,96.26
2023-03-25T06:30:13.414Z,96.42
2023-03-25T06:35:14.718Z,97.86
2023-03-25T06:40:15.890Z,99.35
2023-03-25T06:45:17.083Z,99.35
2023-03-25T06:50:18.200Z,99.35
2023-03-25T06:55:19.636Z,99.99
2023-03-25T07:00:20.848Z,99.99
2023-03-25T07:05:22.146Z,99.99
2023-03-25T07:10:23.249Z,99.99
2023-03-25T07:15:24.429Z,99.99
2023-03-25T07:20:24.598Z,97.63
2023-03-25T07:25:24.727Z,99.99
2023-03-25T07:30:25.893Z,98.35
2023-03-25T07:35:28.084Z,97.01
2023-03-25T07:40:27.272Z,96.53
2023-03-25T07:45:28.654Z,96.66
2023-03-25T07:50:29.793Z,95.06
2023-03-25T07:55:30.946Z,96.36
2023-03-25T08:00:32.092Z,96.00
2023-03-25T08:05:33.236Z,95.03
2023-03-25T08:10:34.418Z,96.18
2023-03-25T08:15:36.503Z,94.80
2023-03-25T08:20:35.937Z,92.72
2023-03-25T08:25:37.121Z,90.62
2023-03-25T08:30:38.265Z,89.92
2023-03-25T08:35:39.466Z,88.18
2023-03-25T08:40:40.736Z,87.24
2023-03-25T08:45:41.950Z,88.57
2023-03-25T08:50:43.036Z,84.95
2023-03-25T08:55:44.200Z,90.11
2023-03-25T09:00:45.324Z,87.57
2023-03-25T09:05:47.535Z,86.24
2023-03-25T09:10:46.720Z,87.98
2023-03-25T09:15:47.902Z,87.88
2023-03-25T09:20:49.137Z,86.65
2023-03-25T09:25:50.589Z,87.10
2023-03-25T09:30:51.029Z,86.98
2023-03-25T09:35:50.409Z,82.81
2023-03-25T09:40:49.741Z,82.01
2023-03-25T09:45:51.028Z,82.12
2023-03-25T09:50:52.198Z,81.37
2023-03-25T09:55:53.694Z,78.34
2023-03-25T10:00:54.955Z,80.39
2023-03-25T10:05:55.116Z,81.86
2023-03-25T10:10:56.262Z,83.33
2023-03-25T10:15:57.436Z,81.40
2023-03-25T10:20:58.588Z,82.24
2023-03-25T10:25:59.717Z,79.82
2023-03-25T10:31:00.866Z,75.89
2023-03-25T10:36:02.020Z,78.75
2023-03-25T10:41:03.133Z,77.97
2023-03-25T10:46:04.281Z,78.61
2023-03-25T10:51:05.369Z,78.00
2023-03-25T10:56:06.530Z,77.76
2023-03-25T11:01:07.749Z,76.74
2023-03-25T11:06:08.917Z,78.47
2023-03-25T11:11:10.062Z,75.03
2023-03-25T11:16:11.211Z,73.02
2023-03-25T11:21:12.332Z,69.73
2023-03-25T11:26:13.485Z,72.58
2023-03-25T11:31:14.758Z,72.17
2023-03-25T11:36:15.879Z,71.73
2023-03-25T11:41:17.035Z,69.56
2023-03-25T11:46:18.417Z,71.36
2023-03-25T11:51:19.628Z,70.98
2023-03-25T11:56:20.914Z,69.73
2023-03-25T12:01:22.228Z,70.78
2023-03-25T12:06:23.612Z,69.97
2023-03-25T12:11:24.739Z,67.83
2023-03-25T12:16:25.943Z,64.06
2023-03-25T12:21:27.408Z,61.24
2023-03-25T12:26:29.004Z,59.58
2023-03-25T12:31:26.175Z,59.28
2023-03-25T12:36:27.297Z,54.33
2023-03-25T12:41:28.479Z,53.27
2023-03-25T12:46:29.634Z,51.46
2023-03-25T12:51:30.744Z,52.84
2023-03-25T12:56:31.976Z,49.99
2023-03-25T13:01:33.074Z,51.21
2023-03-25T13:06:34.298Z,51.29
2023-03-25T13:11:35.506Z,53.22
2023-03-25T13:16:36.720Z,52.98
2023-03-25T13:21:37.936Z,54.13
2023-03-25T13:26:41.136Z,54.18
2023-03-25T13:31:39.818Z,51.84
2023-03-25T13:36:39.009Z,51.95
2023-03-25T13:41:40.213Z,51.39
2023-03-25T13:46:41.450Z,50.52
2023-03-25T13:51:42.587Z,53.78
2023-03-25T13:56:43.768Z,53.63
2023-03-25T14:01:45.061Z,50.48
2023-03-25T14:06:47.154Z,52.05
2023-03-25T14:11:46.300Z,51.11
2023-03-25T14:16:47.514Z,50.83
2023-03-25T14:21:48.627Z,51.26
2023-03-25T14:26:49.850Z,53.27
2023-03-25T14:31:50.940Z,58.11
2023-03-25T14:36:52.127Z,63.19
2023-03-25T14:41:53.215Z,62.70
2023-03-25T14:46:54.478Z,61.07
2023-03-25T14:51:55.574Z,61.21
2023-03-25T14:56:56.750Z,59.75
2023-03-25T15:01:58.133Z,55.12
2023-03-25T15:06:59.230Z,53.39
2023-03-25T15:12:00.384Z,56.42
2023-03-25T15:17:02.510Z,53.75
2023-03-25T15:22:01.712Z,51.06
2023-03-25T15:27:03.830Z,49.56
2023-03-25T15:32:02.945Z,45.90
2023-03-25T15:37:04.077Z,48.22
2023-03-25T15:42:05.162Z,46.72
2023-03-25T15:47:06.327Z,45.48
2023-03-25T15:52:07.679Z,47.46
2023-03-25T15:57:09.882Z,47.77
2023-03-25T16:02:09.011Z,47.77
2023-03-25T16:07:10.147Z,48.91
2023-03-25T16:12:11.432Z,47.38
2023-03-25T16:17:13.636Z,49.84
2023-03-25T16:22:12.793Z,52.23
2023-03-25T16:27:12.946Z,55.30
2023-03-25T16:32:14.127Z,52.94
2023-03-25T16:37:15.233Z,54.85
2023-03-25T16:42:16.342Z,57.26
2023-03-25T16:47:17.519Z,55.48
2023-03-25T16:52:19.744Z,56.60
2023-03-25T16:57:18.951Z,58.80
2023-03-25T17:02:20.150Z,57.62
2023-03-25T17:07:21.289Z,58.26
2023-03-25T17:12:22.764Z,58.69
2023-03-25T17:17:21.030Z,57.70
2023-03-25T17:22:22.468Z,59.33
2023-03-25T17:27:21.642Z,59.05
2023-03-25T17:32:23.502Z,59.77
2023-03-25T17:37:22.735Z,60.30
2023-03-25T17:42:26.904Z,61.15
2023-03-25T17:47:24.319Z,62.95
2023-03-25T17:52:25.613Z,62.63
2023-03-25T17:57:26.763Z,63.86
2023-03-25T18:02:29.029Z,64.71
2023-03-25T18:07:28.214Z,65.53
2023-03-25T18:12:30.335Z,65.97
2023-03-25T18:17:29.566Z,66.48
2023-03-25T18:22:32.759Z,67.33
2023-03-25T18:27:42.759Z,69.95
2023-03-25T18:32:34.205Z,69.24
2023-03-25T18:37:33.751Z,68.28
2023-03-25T18:42:33.030Z,68.05
2023-03-25T18:47:34.470Z,68.76
2023-03-25T18:52:40.033Z,68.55
2023-03-25T18:57:34.305Z,68.35
2023-03-25T19:02:34.034Z,69.82
2023-03-25T19:07:33.620Z,71.49
2023-03-25T19:12:32.947Z,72.96
2023-03-25T19:17:34.373Z,73.36
2023-03-25T19:22:33.835Z,75.24
2023-03-25T19:27:33.310Z,74.63
2023-03-25T19:32:36.815Z,76.17
2023-03-25T19:37:33.507Z,75.69
2023-03-25T19:42:33.881Z,77.44
2023-03-25T19:47:33.803Z,77.17
2023-03-25T19:52:33.787Z,77.17
2023-03-25T19:57:32.954Z,74.08
2023-03-25T20:02:35.317Z,74.26
2023-03-25T20:07:33.671Z,72.75
2023-03-25T20:12:38.841Z,72.10
2023-03-25T20:17:36.417Z,71.56
2023-03-25T20:22:36.042Z,69.68
2023-03-25T20:27:36.497Z,71.11
2023-03-25T20:32:41.154Z,70.36
2023-03-25T20:37:36.005Z,71.04
2023-03-25T20:42:35.454Z,68.18
2023-03-25T20:47:37.056Z,68.15
2023-03-25T20:52:36.440Z,71.04
2023-03-25T20:57:37.852Z,72.20
2023-03-25T21:02:38.114Z,70.47
2023-03-25T21:07:37.756Z,70.03
2023-03-25T21:12:43.700Z,71.25
2023-03-25T21:17:39.224Z,71.08
2023-03-25T21:22:39.719Z,71.90
2023-03-25T21:27:39.370Z,72.72
2023-03-25T21:32:44.439Z,72.41
2023-03-25T21:37:40.248Z,72.11
2023-03-25T21:42:38.707Z,70.74
2023-03-25T21:47:39.894Z,70.53
2023-03-25T21:52:40.000Z,69.71
2023-03-25T21:57:41.196Z,70.87
2023-03-25T22:02:43.261Z,70.70
2023-03-25T22:07:42.333Z,71.32
2023-03-25T22:12:43.497Z,71.97
2023-03-25T22:17:44.733Z,73.85
2023-03-25T22:22:45.949Z,74.63
2023-03-25T22:27:47.196Z,75.87
2023-03-25T22:32:48.398Z,77.51
2023-03-25T22:37:49.588Z,76.62
2023-03-25T22:42:50.667Z,76.17
2023-03-25T22:47:51.905Z,74.63
2023-03-25T22:52:53.048Z,75.56
2023-03-25T22:57:54.259Z,75.59
2023-03-25T23:02:55.533Z,76.35
2023-03-25T23:07:56.735Z,75.90
2023-03-25T23:12:57.940Z,74.98
2023-03-25T23:18:00.033Z,75.83
2023-03-25T23:22:59.119Z,75.73
2023-03-25T23:28:00.310Z,75.49
2023-03-25T23:33:01.533Z,75.38
2023-03-25T23:38:04.841Z,76.04
2023-03-25T23:43:04.066Z,75.93
2023-03-25T23:48:05.385Z,77.82
2023-03-25T23:53:06.554Z,78.75
2023-03-25T23:58:07.741Z,79.81
